sensor_id;sensor_type;location;lat;lon;timestamp;temperature;humidity
75615;DHT22;64199;48.578;-4.520;2022-12-24T00:00:29;20.80;58.10
75615;DHT22;64199;48.578;-4.520;2022-12-24T00:02:54;20.90;58.10
75615;DHT22;64199;48.578;-4.520;2022-12-24T00:05:20;20.90;58.00
75615;DHT22;64199;48.578;-4.520;2022-12-24T00:07:46;21.00;58.10
75615;DHT22;64199;48.578;-4.520;2022-12-24T00:10:13;20.90;58.00
75615;DHT22;64199;48.578;-4.520;2022-12-24T00:12:44;21.00;58.00
75615;DHT22;64199;48.578;-4.520;2022-12-24T00:15:10;21.00;58.00
75615;DHT22;64199;48.578;-4.520;2022-12-24T00:17:36;21.00;57.90
75615;DHT22;64199;48.578;-4.520;2022-12-24T00:20:02;21.00;57.90
75615;DHT22;64199;48.578;-4.520;2022-12-24T00:22:29;21.00;57.90
75615;DHT22;64199;48.578;-4.520;2022-12-24T00:24:55;21.10;57.80
75615;DHT22;64199;48.578;-4.520;2022-12-24T00:27:20;21.10;57.80
75615;DHT22;64199;48.578;-4.520;2022-12-24T00:29:46;21.20;57.80
75615;DHT22;64199;48.578;-4.520;2022-12-24T00:32:12;21.20;57.80
75615;DHT22;64199;48.578;-4.520;2022-12-24T00:34:38;21.20;57.80
75615;DHT22;64199;48.578;-4.520;2022-12-24T00:37:06;21.20;57.70
75615;DHT22;64199;48.578;-4.520;2022-12-24T00:39:32;21.30;57.80
75615;DHT22;64199;48.578;-4.520;2022-12-24T00:41:58;21.30;58.40
75615;DHT22;64199;48.578;-4.520;2022-12-24T00:44:24;21.30;57.70
75615;DHT22;64199;48.578;-4.520;2022-12-24T00:46:51;21.30;57.70
75615;DHT22;64199;48.578;-4.520;2022-12-24T00:49:17;21.40;57.70
75615;DHT22;64199;48.578;-4.520;2022-12-24T00:51:42;21.40;57.70
75615;DHT22;64199;48.578;-4.520;2022-12-24T00:54:08;21.40;57.70
75615;DHT22;64199;48.578;-4.520;2022-12-24T00:56:34;21.50;57.70
75615;DHT22;64199;48.578;-4.520;2022-12-24T00:59:00;21.50;57.70
75615;DHT22;64199;48.578;-4.520;2022-12-24T01:01:26;21.50;57.70
75615;DHT22;64199;48.578;-4.520;2022-12-24T01:03:52;21.50;57.60
75615;DHT22;64199;48.578;-4.520;2022-12-24T01:06:38;21.60;57.70
75615;DHT22;64199;48.578;-4.520;2022-12-24T01:09:04;21.60;57.60
75615;DHT22;64199;48.578;-4.520;2022-12-24T01:11:30;21.60;57.60
75615;DHT22;64199;48.578;-4.520;2022-12-24T01:13:56;21.60;57.60
75615;DHT22;64199;48.578;-4.520;2022-12-24T01:16:22;21.70;57.60
75615;DHT22;64199;48.578;-4.520;2022-12-24T01:18:47;21.70;57.60
75615;DHT22;64199;48.578;-4.520;2022-12-24T01:21:14;21.70;57.50
75615;DHT22;64199;48.578;-4.520;2022-12-24T01:23:39;21.80;57.60
75615;DHT22;64199;48.578;-4.520;2022-12-24T01:26:05;21.80;57.60
75615;DHT22;64199;48.578;-4.520;2022-12-24T01:28:31;21.80;57.50
75615;DHT22;64199;48.578;-4.520;2022-12-24T01:30:57;21.80;57.50
75615;DHT22;64199;48.578;-4.520;2022-12-24T01:33:23;21.90;57.50
75615;DHT22;64199;48.578;-4.520;2022-12-24T01:35:49;21.80;57.40
75615;DHT22;64199;48.578;-4.520;2022-12-24T01:38:14;21.90;57.40
75615;DHT22;64199;48.578;-4.520;2022-12-24T01:40:41;22.00;57.40
75615;DHT22;64199;48.578;-4.520;2022-12-24T01:43:28;22.00;57.40
75615;DHT22;64199;48.578;-4.520;2022-12-24T01:46:02;22.00;57.40
75615;DHT22;64199;48.578;-4.520;2022-12-24T01:48:54;22.00;57.30
75615;DHT22;64199;48.578;-4.520;2022-12-24T01:51:32;22.10;57.40
75615;DHT22;64199;48.578;-4.520;2022-12-24T01:54:07;22.10;57.40
75615;DHT22;64199;48.578;-4.520;2022-12-24T01:56:37;22.10;57.30
75615;DHT22;64199;48.578;-4.520;2022-12-24T01:59:07;22.10;57.30
75615;DHT22;64199;48.578;-4.520;2022-12-24T02:01:35;22.20;57.30
75615;DHT22;64199;48.578;-4.520;2022-12-24T02:04:11;22.20;57.30
75615;DHT22;64199;48.578;-4.520;2022-12-24T02:06:39;22.30;57.30
75615;DHT22;64199;48.578;-4.520;2022-12-24T02:09:05;22.30;57.30
75615;DHT22;64199;48.578;-4.520;2022-12-24T02:11:33;22.30;57.20
75615;DHT22;64199;48.578;-4.520;2022-12-24T02:14:01;22.30;57.20
75615;DHT22;64199;48.578;-4.520;2022-12-24T02:17:12;22.40;57.20
75615;DHT22;64199;48.578;-4.520;2022-12-24T02:25:01;22.50;57.20
75615;DHT22;64199;48.578;-4.520;2022-12-24T02:27:49;22.50;57.10
75615;DHT22;64199;48.578;-4.520;2022-12-24T02:30:18;22.50;57.10
75615;DHT22;64199;48.578;-4.520;2022-12-24T02:33:23;22.50;57.10
75615;DHT22;64199;48.578;-4.520;2022-12-24T02:41:10;22.60;57.00
75615;DHT22;64199;48.578;-4.520;2022-12-24T02:43:39;22.70;57.10
75615;DHT22;64199;48.578;-4.520;2022-12-24T02:46:16;22.70;57.10
75615;DHT22;64199;48.578;-4.520;2022-12-24T02:48:44;22.70;57.00
75615;DHT22;64199;48.578;-4.520;2022-12-24T02:51:12;22.70;56.90
75615;DHT22;64199;48.578;-4.520;2022-12-24T02:53:38;22.80;57.00
75615;DHT22;64199;48.578;-4.520;2022-12-24T03:04:17;22.90;56.80
75615;DHT22;64199;48.578;-4.520;2022-12-24T03:09:46;22.90;56.70
75615;DHT22;64199;48.578;-4.520;2022-12-24T03:12:42;22.90;56.70
75615;DHT22;64199;48.578;-4.520;2022-12-24T03:15:07;22.90;56.80
75615;DHT22;64199;48.578;-4.520;2022-12-24T03:17:36;22.90;56.80
75615;DHT22;64199;48.578;-4.520;2022-12-24T03:20:05;23.00;56.70
75615;DHT22;64199;48.578;-4.520;2022-12-24T03:22:33;23.00;56.70
75615;DHT22;64199;48.578;-4.520;2022-12-24T03:24:59;23.10;56.70
75615;DHT22;64199;48.578;-4.520;2022-12-24T03:27:27;23.10;56.70
75615;DHT22;64199;48.578;-4.520;2022-12-24T03:29:54;23.10;56.70
75615;DHT22;64199;48.578;-4.520;2022-12-24T03:32:28;23.10;56.60
75615;DHT22;64199;48.578;-4.520;2022-12-24T03:34:54;23.10;56.60
75615;DHT22;64199;48.578;-4.520;2022-12-24T03:37:21;23.20;56.60
75615;DHT22;64199;48.578;-4.520;2022-12-24T03:39:47;23.20;56.60
75615;DHT22;64199;48.578;-4.520;2022-12-24T03:42:13;23.20;56.60
75615;DHT22;64199;48.578;-4.520;2022-12-24T03:44:39;23.20;56.50
75615;DHT22;64199;48.578;-4.520;2022-12-24T03:47:05;23.30;56.50
75615;DHT22;64199;48.578;-4.520;2022-12-24T03:49:30;23.30;56.50
75615;DHT22;64199;48.578;-4.520;2022-12-24T03:51:56;23.30;56.50
75615;DHT22;64199;48.578;-4.520;2022-12-24T03:54:22;23.30;56.50
75615;DHT22;64199;48.578;-4.520;2022-12-24T03:56:48;23.40;56.50
75615;DHT22;64199;48.578;-4.520;2022-12-24T03:59:14;23.40;56.40
75615;DHT22;64199;48.578;-4.520;2022-12-24T04:01:40;23.40;56.40
75615;DHT22;64199;48.578;-4.520;2022-12-24T04:04:06;23.40;56.40
75615;DHT22;64199;48.578;-4.520;2022-12-24T04:06:32;23.40;56.30
75615;DHT22;64199;48.578;-4.520;2022-12-24T04:08:58;23.40;56.30
75615;DHT22;64199;48.578;-4.520;2022-12-24T04:11:26;23.50;56.30
75615;DHT22;64199;48.578;-4.520;2022-12-24T04:13:52;23.40;56.30
75615;DHT22;64199;48.578;-4.520;2022-12-24T04:16:18;23.50;56.30
75615;DHT22;64199;48.578;-4.520;2022-12-24T04:18:44;23.50;56.30
75615;DHT22;64199;48.578;-4.520;2022-12-24T04:21:10;23.50;56.30
75615;DHT22;64199;48.578;-4.520;2022-12-24T04:23:38;23.50;56.30
75615;DHT22;64199;48.578;-4.520;2022-12-24T04:26:06;23.60;56.30
75615;DHT22;64199;48.578;-4.520;2022-12-24T04:28:33;23.60;56.20
75615;DHT22;64199;48.578;-4.520;2022-12-24T04:31:00;23.60;56.30
75615;DHT22;64199;48.578;-4.520;2022-12-24T04:33:27;23.60;56.20
75615;DHT22;64199;48.578;-4.520;2022-12-24T04:35:53;23.60;56.10
75615;DHT22;64199;48.578;-4.520;2022-12-24T04:38:19;23.60;56.10
75615;DHT22;64199;48.578;-4.520;2022-12-24T04:40:45;23.70;56.20
75615;DHT22;64199;48.578;-4.520;2022-12-24T04:43:11;23.70;56.20
75615;DHT22;64199;48.578;-4.520;2022-12-24T04:45:37;23.70;56.20
75615;DHT22;64199;48.578;-4.520;2022-12-24T04:48:03;23.80;56.30
75615;DHT22;64199;48.578;-4.520;2022-12-24T04:50:28;23.80;56.30
75615;DHT22;64199;48.578;-4.520;2022-12-24T04:52:54;23.80;56.30
75615;DHT22;64199;48.578;-4.520;2022-12-24T04:55:20;23.80;56.40
75615;DHT22;64199;48.578;-4.520;2022-12-24T04:57:46;23.80;56.30
75615;DHT22;64199;48.578;-4.520;2022-12-24T05:00:12;23.90;56.30
75615;DHT22;64199;48.578;-4.520;2022-12-24T05:02:38;23.90;56.30
75615;DHT22;64199;48.578;-4.520;2022-12-24T05:05:04;23.90;56.20
75615;DHT22;64199;48.578;-4.520;2022-12-24T05:07:30;23.90;56.20
75615;DHT22;64199;48.578;-4.520;2022-12-24T05:09:56;23.90;56.10
75615;DHT22;64199;48.578;-4.520;2022-12-24T05:12:22;23.90;56.00
75615;DHT22;64199;48.578;-4.520;2022-12-24T05:14:47;23.90;56.00
75615;DHT22;64199;48.578;-4.520;2022-12-24T05:17:13;24.00;56.00
75615;DHT22;64199;48.578;-4.520;2022-12-24T05:19:39;23.90;55.90
75615;DHT22;64199;48.578;-4.520;2022-12-24T05:22:05;24.00;56.00
75615;DHT22;64199;48.578;-4.520;2022-12-24T05:24:49;24.00;55.90
75615;DHT22;64199;48.578;-4.520;2022-12-24T05:27:33;24.00;55.90
75615;DHT22;64199;48.578;-4.520;2022-12-24T05:29:59;24.00;55.90
75615;DHT22;64199;48.578;-4.520;2022-12-24T05:32:25;24.00;55.90
75615;DHT22;64199;48.578;-4.520;2022-12-24T05:34:51;24.00;55.80
75615;DHT22;64199;48.578;-4.520;2022-12-24T05:37:16;24.00;55.80
75615;DHT22;64199;48.578;-4.520;2022-12-24T05:39:42;24.10;55.80
75615;DHT22;64199;48.578;-4.520;2022-12-24T05:42:08;24.00;55.80
75615;DHT22;64199;48.578;-4.520;2022-12-24T05:44:34;24.00;55.70
75615;DHT22;64199;48.578;-4.520;2022-12-24T05:47:00;24.00;55.70
75615;DHT22;64199;48.578;-4.520;2022-12-24T05:49:25;24.00;55.60
75615;DHT22;64199;48.578;-4.520;2022-12-24T05:51:51;23.90;55.60
75615;DHT22;64199;48.578;-4.520;2022-12-24T05:54:17;23.90;55.60
75615;DHT22;64199;48.578;-4.520;2022-12-24T05:56:43;23.90;55.60
75615;DHT22;64199;48.578;-4.520;2022-12-24T05:59:09;23.80;55.50
75615;DHT22;64199;48.578;-4.520;2022-12-24T06:01:35;23.80;55.40
75615;DHT22;64199;48.578;-4.520;2022-12-24T06:04:01;23.80;55.50
75615;DHT22;64199;48.578;-4.520;2022-12-24T06:06:27;23.80;55.30
75615;DHT22;64199;48.578;-4.520;2022-12-24T06:08:54;23.70;55.20
75615;DHT22;64199;48.578;-4.520;2022-12-24T06:11:23;23.70;55.20
75615;DHT22;64199;48.578;-4.520;2022-12-24T06:13:49;23.70;55.10
75615;DHT22;64199;48.578;-4.520;2022-12-24T06:16:17;23.60;55.10
75615;DHT22;64199;48.578;-4.520;2022-12-24T06:18:44;23.50;55.00
75615;DHT22;64199;48.578;-4.520;2022-12-24T06:21:10;23.60;55.10
75615;DHT22;64199;48.578;-4.520;2022-12-24T06:23:38;23.50;55.10
75615;DHT22;64199;48.578;-4.520;2022-12-24T06:26:05;23.50;55.00
75615;DHT22;64199;48.578;-4.520;2022-12-24T06:28:34;23.40;55.00
75615;DHT22;64199;48.578;-4.520;2022-12-24T06:31:01;23.40;55.00
75615;DHT22;64199;48.578;-4.520;2022-12-24T06:33:28;23.30;55.00
75615;DHT22;64199;48.578;-4.520;2022-12-24T06:35:54;23.30;55.00
75615;DHT22;64199;48.578;-4.520;2022-12-24T06:38:20;23.30;55.00
75615;DHT22;64199;48.578;-4.520;2022-12-24T06:40:46;23.20;55.00
75615;DHT22;64199;48.578;-4.520;2022-12-24T06:43:13;23.20;55.10
75615;DHT22;64199;48.578;-4.520;2022-12-24T06:45:43;23.10;55.10
75615;DHT22;64199;48.578;-4.520;2022-12-24T06:48:09;23.10;55.10
75615;DHT22;64199;48.578;-4.520;2022-12-24T06:50:35;23.10;55.20
75615;DHT22;64199;48.578;-4.520;2022-12-24T06:53:01;23.10;55.80
75615;DHT22;64199;48.578;-4.520;2022-12-24T06:55:27;23.10;55.20
75615;DHT22;64199;48.578;-4.520;2022-12-24T06:57:52;23.00;55.20
75615;DHT22;64199;48.578;-4.520;2022-12-24T07:00:19;23.00;55.10
75615;DHT22;64199;48.578;-4.520;2022-12-24T07:02:46;22.90;55.00
75615;DHT22;64199;48.578;-4.520;2022-12-24T07:05:12;22.90;55.10
75615;DHT22;64199;48.578;-4.520;2022-12-24T07:07:40;22.90;55.00
75615;DHT22;64199;48.578;-4.520;2022-12-24T07:10:09;22.80;55.10
75615;DHT22;64199;48.578;-4.520;2022-12-24T07:12:36;22.80;55.10
75615;DHT22;64199;48.578;-4.520;2022-12-24T07:15:01;22.80;55.10
75615;DHT22;64199;48.578;-4.520;2022-12-24T07:17:27;22.80;55.10
75615;DHT22;64199;48.578;-4.520;2022-12-24T07:19:53;22.70;55.10
75615;DHT22;64199;48.578;-4.520;2022-12-24T07:22:19;22.70;55.10
75615;DHT22;64199;48.578;-4.520;2022-12-24T07:24:45;22.70;55.20
75615;DHT22;64199;48.578;-4.520;2022-12-24T07:27:11;22.70;55.20
75615;DHT22;64199;48.578;-4.520;2022-12-24T07:29:37;22.60;55.10
75615;DHT22;64199;48.578;-4.520;2022-12-24T07:32:03;22.60;55.20
75615;DHT22;64199;48.578;-4.520;2022-12-24T07:34:29;22.50;55.20
75615;DHT22;64199;48.578;-4.520;2022-12-24T07:36:55;22.50;55.20
75615;DHT22;64199;48.578;-4.520;2022-12-24T07:39:21;22.50;55.20
75615;DHT22;64199;48.578;-4.520;2022-12-24T07:41:47;22.40;55.20
75615;DHT22;64199;48.578;-4.520;2022-12-24T07:44:15;22.40;55.30
75615;DHT22;64199;48.578;-4.520;2022-12-24T07:46:42;22.40;55.20
75615;DHT22;64199;48.578;-4.520;2022-12-24T07:49:08;22.40;55.20
75615;DHT22;64199;48.578;-4.520;2022-12-24T07:51:35;22.40;55.30
75615;DHT22;64199;48.578;-4.520;2022-12-24T07:54:01;22.30;55.20
75615;DHT22;64199;48.578;-4.520;2022-12-24T07:56:29;22.30;55.30
75615;DHT22;64199;48.578;-4.520;2022-12-24T07:58:55;22.20;55.30
75615;DHT22;64199;48.578;-4.520;2022-12-24T08:01:21;22.20;55.30
75615;DHT22;64199;48.578;-4.520;2022-12-24T08:03:47;22.20;55.30
75615;DHT22;64199;48.578;-4.520;2022-12-24T08:06:15;22.10;55.30
75615;DHT22;64199;48.578;-4.520;2022-12-24T08:08:41;22.10;55.30
75615;DHT22;64199;48.578;-4.520;2022-12-24T08:11:07;22.10;55.30
75615;DHT22;64199;48.578;-4.520;2022-12-24T08:13:34;22.10;55.30
75615;DHT22;64199;48.578;-4.520;2022-12-24T08:16:00;22.00;55.30
75615;DHT22;64199;48.578;-4.520;2022-12-24T08:18:26;22.00;55.20
75615;DHT22;64199;48.578;-4.520;2022-12-24T08:20:52;22.00;55.30
75615;DHT22;64199;48.578;-4.520;2022-12-24T08:23:18;22.00;55.20
75615;DHT22;64199;48.578;-4.520;2022-12-24T08:25:45;22.00;55.20
75615;DHT22;64199;48.578;-4.520;2022-12-24T08:28:13;22.00;55.20
75615;DHT22;64199;48.578;-4.520;2022-12-24T08:30:39;22.00;55.30
75615;DHT22;64199;48.578;-4.520;2022-12-24T08:33:06;21.90;55.20
75615;DHT22;64199;48.578;-4.520;2022-12-24T08:35:32;21.90;55.90
75615;DHT22;64199;48.578;-4.520;2022-12-24T08:37:58;21.80;55.30
75615;DHT22;64199;48.578;-4.520;2022-12-24T08:40:24;21.80;55.30
75615;DHT22;64199;48.578;-4.520;2022-12-24T08:42:50;21.80;55.20
75615;DHT22;64199;48.578;-4.520;2022-12-24T08:45:16;21.80;55.20
75615;DHT22;64199;48.578;-4.520;2022-12-24T08:47:42;21.90;55.20
75615;DHT22;64199;48.578;-4.520;2022-12-24T08:50:08;21.90;55.20
75615;DHT22;64199;48.578;-4.520;2022-12-24T08:52:35;21.90;55.20
75615;DHT22;64199;48.578;-4.520;2022-12-24T08:55:01;21.90;55.30
75615;DHT22;64199;48.578;-4.520;2022-12-24T08:57:27;21.90;55.30
75615;DHT22;64199;48.578;-4.520;2022-12-24T08:59:53;22.00;55.40
75615;DHT22;64199;48.578;-4.520;2022-12-24T09:02:19;22.00;55.40
75615;DHT22;64199;48.578;-4.520;2022-12-24T09:04:47;22.00;55.40
75615;DHT22;64199;48.578;-4.520;2022-12-24T09:07:13;22.10;55.40
75615;DHT22;64199;48.578;-4.520;2022-12-24T09:09:39;22.10;55.50
75615;DHT22;64199;48.578;-4.520;2022-12-24T09:12:06;22.10;55.50
75615;DHT22;64199;48.578;-4.520;2022-12-24T09:14:32;22.10;55.50
75615;DHT22;64199;48.578;-4.520;2022-12-24T09:16:58;22.10;55.50
75615;DHT22;64199;48.578;-4.520;2022-12-24T09:19:24;22.10;55.50
75615;DHT22;64199;48.578;-4.520;2022-12-24T09:21:50;22.20;55.50
75615;DHT22;64199;48.578;-4.520;2022-12-24T09:24:16;22.20;55.60
75615;DHT22;64199;48.578;-4.520;2022-12-24T09:26:42;22.20;55.50
75615;DHT22;64199;48.578;-4.520;2022-12-24T09:29:10;22.30;55.60
75615;DHT22;64199;48.578;-4.520;2022-12-24T09:31:36;22.30;55.60
75615;DHT22;64199;48.578;-4.520;2022-12-24T09:34:02;22.30;56.30
75615;DHT22;64199;48.578;-4.520;2022-12-24T09:36:28;22.30;55.60
75615;DHT22;64199;48.578;-4.520;2022-12-24T09:38:54;22.30;55.70
75615;DHT22;64199;48.578;-4.520;2022-12-24T09:44:10;22.40;55.70
75615;DHT22;64199;48.578;-4.520;2022-12-24T09:46:40;22.40;55.70
75615;DHT22;64199;48.578;-4.520;2022-12-24T09:49:12;22.40;55.70
75615;DHT22;64199;48.578;-4.520;2022-12-24T09:51:43;22.40;55.70
75615;DHT22;64199;48.578;-4.520;2022-12-24T09:56:39;22.40;55.70
75615;DHT22;64199;48.578;-4.520;2022-12-24T09:59:08;22.50;55.60
75615;DHT22;64199;48.578;-4.520;2022-12-24T10:01:35;22.50;55.60
75615;DHT22;64199;48.578;-4.520;2022-12-24T10:04:06;22.60;55.60
75615;DHT22;64199;48.578;-4.520;2022-12-24T10:22:32;22.80;55.40
75615;DHT22;64199;48.578;-4.520;2022-12-24T10:25:03;22.80;55.30
75615;DHT22;64199;48.578;-4.520;2022-12-24T10:27:34;22.80;55.30
75615;DHT22;64199;48.578;-4.520;2022-12-24T10:30:05;22.80;55.30
75615;DHT22;64199;48.578;-4.520;2022-12-24T10:32:31;22.80;55.30
75615;DHT22;64199;48.578;-4.520;2022-12-24T10:34:58;22.90;55.30
75615;DHT22;64199;48.578;-4.520;2022-12-24T10:37:32;22.90;55.30
75615;DHT22;64199;48.578;-4.520;2022-12-24T10:39:58;22.90;55.30
75615;DHT22;64199;48.578;-4.520;2022-12-24T10:42:26;23.00;55.30
75615;DHT22;64199;48.578;-4.520;2022-12-24T10:45:00;23.00;55.30
75615;DHT22;64199;48.578;-4.520;2022-12-24T10:47:27;23.00;55.30
75615;DHT22;64199;48.578;-4.520;2022-12-24T10:50:00;23.00;55.20
75615;DHT22;64199;48.578;-4.520;2022-12-24T10:52:28;23.00;55.20
75615;DHT22;64199;48.578;-4.520;2022-12-24T10:57:41;23.10;55.20
75615;DHT22;64199;48.578;-4.520;2022-12-24T11:00:26;23.10;55.20
75615;DHT22;64199;48.578;-4.520;2022-12-24T11:03:19;23.10;55.20
75615;DHT22;64199;48.578;-4.520;2022-12-24T11:05:45;23.10;55.20
75615;DHT22;64199;48.578;-4.520;2022-12-24T11:10:39;23.20;55.10
75615;DHT22;64199;48.578;-4.520;2022-12-24T11:13:05;23.20;55.10
75615;DHT22;64199;48.578;-4.520;2022-12-24T11:15:43;23.20;55.00
75615;DHT22;64199;48.578;-4.520;2022-12-24T11:18:12;23.20;55.00
75615;DHT22;64199;48.578;-4.520;2022-12-24T11:20:38;23.20;55.00
75615;DHT22;64199;48.578;-4.520;2022-12-24T11:23:04;23.30;55.00
75615;DHT22;64199;48.578;-4.520;2022-12-24T11:25:33;23.30;55.00
75615;DHT22;64199;48.578;-4.520;2022-12-24T11:28:18;23.30;54.90
75615;DHT22;64199;48.578;-4.520;2022-12-24T11:33:26;23.40;54.90
75615;DHT22;64199;48.578;-4.520;2022-12-24T11:35:55;23.40;54.90
75615;DHT22;64199;48.578;-4.520;2022-12-24T11:38:23;23.40;54.90
75615;DHT22;64199;48.578;-4.520;2022-12-24T11:40:56;23.40;54.90
75615;DHT22;64199;48.578;-4.520;2022-12-24T11:43:22;23.40;54.90
75615;DHT22;64199;48.578;-4.520;2022-12-24T11:45:55;23.40;54.80
75615;DHT22;64199;48.578;-4.520;2022-12-24T11:48:31;23.40;54.80
75615;DHT22;64199;48.578;-4.520;2022-12-24T11:50:58;23.50;54.80
75615;DHT22;64199;48.578;-4.520;2022-12-24T11:56:02;23.50;54.70
75615;DHT22;64199;48.578;-4.520;2022-12-24T11:58:36;23.50;54.70
75615;DHT22;64199;48.578;-4.520;2022-12-24T12:03:48;23.50;54.70
75615;DHT22;64199;48.578;-4.520;2022-12-24T12:08:47;23.60;54.70
75615;DHT22;64199;48.578;-4.520;2022-12-24T12:11:15;23.60;54.70
75615;DHT22;64199;48.578;-4.520;2022-12-24T12:13:41;23.60;54.60
75615;DHT22;64199;48.578;-4.520;2022-12-24T12:19:02;23.60;54.60
75615;DHT22;64199;48.578;-4.520;2022-12-24T12:21:39;23.70;54.60
75615;DHT22;64199;48.578;-4.520;2022-12-24T12:24:11;23.70;54.60
75615;DHT22;64199;48.578;-4.520;2022-12-24T12:26:38;23.70;54.60
75615;DHT22;64199;48.578;-4.520;2022-12-24T12:31:41;23.70;54.60
75615;DHT22;64199;48.578;-4.520;2022-12-24T12:39:35;23.60;54.50
75615;DHT22;64199;48.578;-4.520;2022-12-24T12:42:05;23.60;54.40
75615;DHT22;64199;48.578;-4.520;2022-12-24T12:48:04;23.50;54.40
75615;DHT22;64199;48.578;-4.520;2022-12-24T12:50:08;23.50;54.40
75615;DHT22;64199;48.578;-4.520;2022-12-24T12:57:46;23.40;54.30
75615;DHT22;64199;48.578;-4.520;2022-12-24T13:00:14;23.40;54.40
75615;DHT22;64199;48.578;-4.520;2022-12-24T13:02:50;23.30;54.40
75615;DHT22;64199;48.578;-4.520;2022-12-24T13:05:25;23.30;54.40
75615;DHT22;64199;48.578;-4.520;2022-12-24T13:10:24;23.20;54.40
75615;DHT22;64199;48.578;-4.520;2022-12-24T13:12:58;23.20;54.40
75615;DHT22;64199;48.578;-4.520;2022-12-24T13:20:58;23.10;54.40
75615;DHT22;64199;48.578;-4.520;2022-12-24T13:23:24;23.10;54.40
75615;DHT22;64199;48.578;-4.520;2022-12-24T13:25:53;23.00;54.40
75615;DHT22;64199;48.578;-4.520;2022-12-24T13:30:49;23.00;54.40
75615;DHT22;64199;48.578;-4.520;2022-12-24T13:36:00;22.90;54.30
75615;DHT22;64199;48.578;-4.520;2022-12-24T13:40:51;22.90;54.30
75615;DHT22;64199;48.578;-4.520;2022-12-24T13:43:17;22.80;54.30
75615;DHT22;64199;48.578;-4.520;2022-12-24T13:45:47;22.80;54.20
75615;DHT22;64199;48.578;-4.520;2022-12-24T13:50:46;22.80;54.30
75615;DHT22;64199;48.578;-4.520;2022-12-24T13:55:54;22.70;54.40
75615;DHT22;64199;48.578;-4.520;2022-12-24T13:58:20;22.70;54.30
75615;DHT22;64199;48.578;-4.520;2022-12-24T14:00:53;22.70;54.40
75615;DHT22;64199;48.578;-4.520;2022-12-24T14:03:22;22.70;54.30
75615;DHT22;64199;48.578;-4.520;2022-12-24T14:05:52;22.60;54.20
75615;DHT22;64199;48.578;-4.520;2022-12-24T14:16:13;22.60;54.40
75615;DHT22;64199;48.578;-4.520;2022-12-24T14:21:32;22.50;54.50
75615;DHT22;64199;48.578;-4.520;2022-12-24T14:24:00;22.50;55.00
75615;DHT22;64199;48.578;-4.520;2022-12-24T14:26:28;22.40;54.30
75615;DHT22;64199;48.578;-4.520;2022-12-24T14:29:00;22.40;54.30
75615;DHT22;64199;48.578;-4.520;2022-12-24T14:31:26;22.40;54.20
75615;DHT22;64199;48.578;-4.520;2022-12-24T14:34:03;22.30;54.30
75615;DHT22;64199;48.578;-4.520;2022-12-24T14:36:29;22.30;54.30
75615;DHT22;64199;48.578;-4.520;2022-12-24T14:38:55;22.30;54.30
75615;DHT22;64199;48.578;-4.520;2022-12-24T14:52:18;22.10;54.20
75615;DHT22;64199;48.578;-4.520;2022-12-24T14:54:37;22.10;54.30
75615;DHT22;64199;48.578;-4.520;2022-12-24T14:57:14;22.10;54.30
75615;DHT22;64199;48.578;-4.520;2022-12-24T14:59:43;22.00;54.30
75615;DHT22;64199;48.578;-4.520;2022-12-24T15:04:45;21.90;54.10
75615;DHT22;64199;48.578;-4.520;2022-12-24T15:07:26;21.90;54.20
75615;DHT22;64199;48.578;-4.520;2022-12-24T15:09:52;21.80;54.20
75615;DHT22;64199;48.578;-4.520;2022-12-24T15:12:18;21.80;54.20
75615;DHT22;64199;48.578;-4.520;2022-12-24T15:14:45;21.80;54.10
75615;DHT22;64199;48.578;-4.520;2022-12-24T15:17:11;21.80;54.20
75615;DHT22;64199;48.578;-4.520;2022-12-24T15:19:38;21.80;54.20
75615;DHT22;64199;48.578;-4.520;2022-12-24T15:22:07;21.70;54.20
75615;DHT22;64199;48.578;-4.520;2022-12-24T15:24:34;21.80;54.20
75615;DHT22;64199;48.578;-4.520;2022-12-24T15:27:01;21.80;54.10
75615;DHT22;64199;48.578;-4.520;2022-12-24T15:29:31;21.80;54.00
75615;DHT22;64199;48.578;-4.520;2022-12-24T15:31:58;21.90;54.10
75615;DHT22;64199;48.578;-4.520;2022-12-24T15:34:24;21.90;54.10
75615;DHT22;64199;48.578;-4.520;2022-12-24T15:36:50;21.90;54.00
75615;DHT22;64199;48.578;-4.520;2022-12-24T15:39:16;21.90;54.00
75615;DHT22;64199;48.578;-4.520;2022-12-24T15:41:43;21.90;54.00
75615;DHT22;64199;48.578;-4.520;2022-12-24T15:44:34;21.90;54.40
75615;DHT22;64199;48.578;-4.520;2022-12-24T15:47:01;21.90;54.40
75615;DHT22;64199;48.578;-4.520;2022-12-24T15:49:27;21.90;54.50
75615;DHT22;64199;48.578;-4.520;2022-12-24T15:52:01;22.00;54.70
75615;DHT22;64199;48.578;-4.520;2022-12-24T15:54:27;22.00;54.80
75615;DHT22;64199;48.578;-4.520;2022-12-24T15:56:52;22.00;54.90
75615;DHT22;64199;48.578;-4.520;2022-12-24T15:59:26;22.00;55.00
75615;DHT22;64199;48.578;-4.520;2022-12-24T16:01:53;22.10;55.10
75615;DHT22;64199;48.578;-4.520;2022-12-24T16:04:22;22.10;55.10
75615;DHT22;64199;48.578;-4.520;2022-12-24T16:06:56;22.10;55.20
75615;DHT22;64199;48.578;-4.520;2022-12-24T16:12:03;22.20;55.40
75615;DHT22;64199;48.578;-4.520;2022-12-24T16:14:29;22.20;55.40
75615;DHT22;64199;48.578;-4.520;2022-12-24T16:16:55;22.20;55.40
75615;DHT22;64199;48.578;-4.520;2022-12-24T16:19:29;22.20;55.40
75615;DHT22;64199;48.578;-4.520;2022-12-24T16:21:59;22.30;55.50
75615;DHT22;64199;48.578;-4.520;2022-12-24T16:24:49;22.30;55.50
75615;DHT22;64199;48.578;-4.520;2022-12-24T16:27:16;22.30;55.50
75615;DHT22;64199;48.578;-4.520;2022-12-24T16:29:42;22.30;55.50
75615;DHT22;64199;48.578;-4.520;2022-12-24T16:32:24;22.40;55.60
75615;DHT22;64199;48.578;-4.520;2022-12-24T16:34:52;22.40;55.60
75615;DHT22;64199;48.578;-4.520;2022-12-24T16:37:17;22.40;55.60
75615;DHT22;64199;48.578;-4.520;2022-12-24T16:39:43;22.40;55.50
75615;DHT22;64199;48.578;-4.520;2022-12-24T16:42:09;22.40;55.50
75615;DHT22;64199;48.578;-4.520;2022-12-24T16:44:53;22.50;55.60
75615;DHT22;64199;48.578;-4.520;2022-12-24T16:47:23;22.50;55.60
75615;DHT22;64199;48.578;-4.520;2022-12-24T16:49:50;22.60;55.70
75615;DHT22;64199;48.578;-4.520;2022-12-24T16:52:17;22.60;55.70
75615;DHT22;64199;48.578;-4.520;2022-12-24T16:54:43;22.60;56.20
75615;DHT22;64199;48.578;-4.520;2022-12-24T16:57:09;22.70;55.60
75615;DHT22;64199;48.578;-4.520;2022-12-24T16:59:35;22.70;55.60
75615;DHT22;64199;48.578;-4.520;2022-12-24T17:02:01;22.70;55.60
75615;DHT22;64199;48.578;-4.520;2022-12-24T17:04:27;22.70;55.50
75615;DHT22;64199;48.578;-4.520;2022-12-24T17:06:52;22.80;55.60
75615;DHT22;64199;48.578;-4.520;2022-12-24T17:09:18;22.80;55.30
75615;DHT22;64199;48.578;-4.520;2022-12-24T17:11:43;22.80;55.20
75615;DHT22;64199;48.578;-4.520;2022-12-24T17:14:10;22.90;55.20
75615;DHT22;64199;48.578;-4.520;2022-12-24T17:16:36;22.90;55.80
75615;DHT22;64199;48.578;-4.520;2022-12-24T17:19:02;22.90;55.30
75615;DHT22;64199;48.578;-4.520;2022-12-24T17:21:28;22.90;55.20
75615;DHT22;64199;48.578;-4.520;2022-12-24T17:23:54;23.00;55.20
75615;DHT22;64199;48.578;-4.520;2022-12-24T17:26:19;23.00;55.10